sensor_id;sensor_type;location;lat;lon;timestamp;temperature;humidity
43949;DHT22;29429;51.074;13.764;2023-10-31T00:00:45;14.20;99.90
43949;DHT22;29429;51.074;13.764;2023-10-31T00:03:12;14.20;99.90
43949;DHT22;29429;51.074;13.764;2023-10-31T00:05:39;14.20;99.90
43949;DHT22;29429;51.074;13.764;2023-10-31T00:08:06;14.20;99.90
43949;DHT22;29429;51.074;13.764;2023-10-31T00:10:33;14.20;99.90
43949;DHT22;29429;51.074;13.764;2023-10-31T00:13:00;14.20;99.90
43949;DHT22;29429;51.074;13.764;2023-10-31T00:15:27;14.20;99.90
43949;DHT22;29429;51.074;13.764;2023-10-31T00:17:55;14.20;99.90
43949;DHT22;29429;51.074;13.764;2023-10-31T00:20:22;14.20;99.90
43949;DHT22;29429;51.074;13.764;2023-10-31T00:22:49;14.20;99.90
43949;DHT22;29429;51.074;13.764;2023-10-31T00:25:16;14.20;99.90
43949;DHT22;29429;51.074;13.764;2023-10-31T00:27:43;14.20;99.90
43949;DHT22;29429;51.074;13.764;2023-10-31T00:30:11;14.20;99.90
43949;DHT22;29429;51.074;13.764;2023-10-31T00:32:38;14.20;99.90
43949;DHT22;29429;51.074;13.764;2023-10-31T00:35:05;14.20;99.90
43949;DHT22;29429;51.074;13.764;2023-10-31T00:37:32;14.20;99.90
43949;DHT22;29429;51.074;13.764;2023-10-31T00:39:59;14.20;99.90
43949;DHT22;29429;51.074;13.764;2023-10-31T00:42:26;14.10;99.90
43949;DHT22;29429;51.074;13.764;2023-10-31T00:44:53;14.10;99.90
43949;DHT22;29429;51.074;13.764;2023-10-31T00:47:20;14.10;99.90
43949;DHT22;29429;51.074;13.764;2023-10-31T00:49:49;14.10;99.90
43949;DHT22;29429;51.074;13.764;2023-10-31T00:52:16;14.20;99.90
43949;DHT22;29429;51.074;13.764;2023-10-31T00:54:43;14.10;99.90
43949;DHT22;29429;51.074;13.764;2023-10-31T00:57:09;14.10;99.90
43949;DHT22;29429;51.074;13.764;2023-10-31T00:59:36;14.10;99.90
43949;DHT22;29429;51.074;13.764;2023-10-31T01:02:05;14.10;99.90
43949;DHT22;29429;51.074;13.764;2023-10-31T01:04:32;13.90;99.90
43949;DHT22;29429;51.074;13.764;2023-10-31T01:06:59;14.00;99.90
43949;DHT22;29429;51.074;13.764;2023-10-31T01:09:26;14.00;99.90
43949;DHT22;29429;51.074;13.764;2023-10-31T01:11:53;14.10;99.90
43949;DHT22;29429;51.074;13.764;2023-10-31T01:14:20;14.00;99.90
43949;DHT22;29429;51.074;13.764;2023-10-31T01:16:47;14.00;99.90
43949;DHT22;29429;51.074;13.764;2023-10-31T01:19:14;14.00;99.90
43949;DHT22;29429;51.074;13.764;2023-10-31T01:21:41;14.00;99.90
43949;DHT22;29429;51.074;13.764;2023-10-31T01:24:09;14.00;99.90
43949;DHT22;29429;51.074;13.764;2023-10-31T01:26:36;14.00;99.90
43949;DHT22;29429;51.074;13.764;2023-10-31T01:29:03;13.90;99.90
43949;DHT22;29429;51.074;13.764;2023-10-31T01:31:30;13.90;99.90
43949;DHT22;29429;51.074;13.764;2023-10-31T01:33:58;13.90;99.90
43949;DHT22;29429;51.074;13.764;2023-10-31T01:36:26;14.00;99.90
43949;DHT22;29429;51.074;13.764;2023-10-31T01:38:55;13.90;99.90
43949;DHT22;29429;51.074;13.764;2023-10-31T01:41:22;13.90;99.90
43949;DHT22;29429;51.074;13.764;2023-10-31T01:43:49;14.10;99.90
43949;DHT22;29429;51.074;13.764;2023-10-31T01:46:16;13.90;99.90
43949;DHT22;29429;51.074;13.764;2023-10-31T01:48:43;13.90;99.90
43949;DHT22;29429;51.074;13.764;2023-10-31T01:51:11;13.90;99.90
43949;DHT22;29429;51.074;13.764;2023-10-31T01:53:38;14.00;99.90
43949;DHT22;29429;51.074;13.764;2023-10-31T01:56:06;13.90;99.90
43949;DHT22;29429;51.074;13.764;2023-10-31T01:58:36;13.90;99.90
43949;DHT22;29429;51.074;13.764;2023-10-31T02:01:05;13.90;99.90
43949;DHT22;29429;51.074;13.764;2023-10-31T02:03:33;14.00;99.90
43949;DHT22;29429;51.074;13.764;2023-10-31T02:06:00;13.90;99.90
43949;DHT22;29429;51.074;13.764;2023-10-31T02:08:27;13.90;99.90
43949;DHT22;29429;51.074;13.764;2023-10-31T02:10:54;14.00;99.90
43949;DHT22;29429;51.074;13.764;2023-10-31T02:13:22;13.80;99.90
43949;DHT22;29429;51.074;13.764;2023-10-31T02:15:49;13.80;99.90
43949;DHT22;29429;51.074;13.764;2023-10-31T02:18:16;13.90;99.90
43949;DHT22;29429;51.074;13.764;2023-10-31T02:20:44;13.90;99.90
43949;DHT22;29429;51.074;13.764;2023-10-31T02:23:11;13.90;99.90
43949;DHT22;29429;51.074;13.764;2023-10-31T02:25:38;13.90;99.90
43949;DHT22;29429;51.074;13.764;2023-10-31T02:28:05;13.90;99.90
43949;DHT22;29429;51.074;13.764;2023-10-31T02:30:32;13.90;99.90
43949;DHT22;29429;51.074;13.764;2023-10-31T02:33:01;13.90;99.90
43949;DHT22;29429;51.074;13.764;2023-10-31T02:35:29;13.90;99.90
43949;DHT22;29429;51.074;13.764;2023-10-31T02:37:56;13.80;99.90
43949;DHT22;29429;51.074;13.764;2023-10-31T02:40:23;13.90;99.90
43949;DHT22;29429;51.074;13.764;2023-10-31T02:42:50;13.90;99.90
43949;DHT22;29429;51.074;13.764;2023-10-31T02:45:17;13.90;99.90
43949;DHT22;29429;51.074;13.764;2023-10-31T02:47:45;13.90;99.90
43949;DHT22;29429;51.074;13.764;2023-10-31T02:50:12;13.80;99.90
43949;DHT22;29429;51.074;13.764;2023-10-31T02:52:39;13.90;99.90
43949;DHT22;29429;51.074;13.764;2023-10-31T02:55:06;13.90;99.90
43949;DHT22;29429;51.074;13.764;2023-10-31T02:57:33;13.90;99.90
43949;DHT22;29429;51.074;13.764;2023-10-31T03:00:00;13.90;99.90
43949;DHT22;29429;51.074;13.764;2023-10-31T03:02:28;13.90;99.90
43949;DHT22;29429;51.074;13.764;2023-10-31T03:04:56;13.90;99.90
43949;DHT22;29429;51.074;13.764;2023-10-31T03:07:24;13.90;99.90
43949;DHT22;29429;51.074;13.764;2023-10-31T03:09:51;13.90;99.90
43949;DHT22;29429;51.074;13.764;2023-10-31T03:12:18;13.90;99.90
43949;DHT22;29429;51.074;13.764;2023-10-31T03:14:45;13.80;99.90
43949;DHT22;29429;51.074;13.764;2023-10-31T03:17:12;13.90;99.90
43949;DHT22;29429;51.074;13.764;2023-10-31T03:19:39;13.80;99.90
43949;DHT22;29429;51.074;13.764;2023-10-31T03:22:06;13.90;99.90
43949;DHT22;29429;51.074;13.764;2023-10-31T03:24:33;14.00;99.90
43949;DHT22;29429;51.074;13.764;2023-10-31T03:27:00;14.00;99.90
43949;DHT22;29429;51.074;13.764;2023-10-31T03:29:27;13.80;99.90
43949;DHT22;29429;51.074;13.764;2023-10-31T03:31:54;13.80;99.90
43949;DHT22;29429;51.074;13.764;2023-10-31T03:34:21;13.80;99.90
43949;DHT22;29429;51.074;13.764;2023-10-31T03:36:48;13.80;99.90
43949;DHT22;29429;51.074;13.764;2023-10-31T03:39:15;13.80;99.90
43949;DHT22;29429;51.074;13.764;2023-10-31T03:41:42;13.70;99.90
43949;DHT22;29429;51.074;13.764;2023-10-31T03:44:09;13.80;99.90
43949;DHT22;29429;51.074;13.764;2023-10-31T03:46:36;13.80;99.90
43949;DHT22;29429;51.074;13.764;2023-10-31T03:49:03;13.80;99.90
43949;DHT22;29429;51.074;13.764;2023-10-31T03:51:30;13.60;99.90
43949;DHT22;29429;51.074;13.764;2023-10-31T03:53:57;13.60;99.90
43949;DHT22;29429;51.074;13.764;2023-10-31T03:56:24;13.70;99.90
43949;DHT22;29429;51.074;13.764;2023-10-31T03:58:52;13.60;99.90
43949;DHT22;29429;51.074;13.764;2023-10-31T04:01:19;13.60;99.90
43949;DHT22;29429;51.074;13.764;2023-10-31T04:03:46;13.60;99.90
43949;DHT22;29429;51.074;13.764;2023-10-31T04:06:13;13.50;99.90
43949;DHT22;29429;51.074;13.764;2023-10-31T04:08:42;13.60;99.90
43949;DHT22;29429;51.074;13.764;2023-10-31T04:11:09;13.50;99.90
43949;DHT22;29429;51.074;13.764;2023-10-31T04:13:36;13.60;99.90
43949;DHT22;29429;51.074;13.764;2023-10-31T04:16:03;13.50;99.90
43949;DHT22;29429;51.074;13.764;2023-10-31T04:18:30;13.50;99.90
43949;DHT22;29429;51.074;13.764;2023-10-31T04:20:57;13.50;99.90
43949;DHT22;29429;51.074;13.764;2023-10-31T04:23:24;13.50;99.90
43949;DHT22;29429;51.074;13.764;2023-10-31T04:25:51;13.40;99.90
43949;DHT22;29429;51.074;13.764;2023-10-31T04:28:19;13.50;99.90
43949;DHT22;29429;51.074;13.764;2023-10-31T04:30:46;13.40;99.90
43949;DHT22;29429;51.074;13.764;2023-10-31T04:33:13;13.50;99.90
43949;DHT22;29429;51.074;13.764;2023-10-31T04:35:40;13.50;99.90
43949;DHT22;29429;51.074;13.764;2023-10-31T04:38:07;13.50;99.90
43949;DHT22;29429;51.074;13.764;2023-10-31T04:40:34;13.50;99.90
43949;DHT22;29429;51.074;13.764;2023-10-31T04:43:01;13.50;99.90
43949;DHT22;29429;51.074;13.764;2023-10-31T04:45:28;13.50;99.90
43949;DHT22;29429;51.074;13.764;2023-10-31T04:47:55;13.50;99.90
43949;DHT22;29429;51.074;13.764;2023-10-31T04:50:22;13.50;99.90
43949;DHT22;29429;51.074;13.764;2023-10-31T04:52:49;13.40;99.90
43949;DHT22;29429;51.074;13.764;2023-10-31T04:55:16;13.50;99.90
43949;DHT22;29429;51.074;13.764;2023-10-31T04:57:44;13.40;99.90
43949;DHT22;29429;51.074;13.764;2023-10-31T05:00:11;13.40;99.90
43949;DHT22;29429;51.074;13.764;2023-10-31T05:02:39;13.40;99.90
43949;DHT22;29429;51.074;13.764;2023-10-31T05:05:06;13.40;99.90
43949;DHT22;29429;51.074;13.764;2023-10-31T05:07:33;13.40;99.90
43949;DHT22;29429;51.074;13.764;2023-10-31T05:10:01;13.40;99.90
43949;DHT22;29429;51.074;13.764;2023-10-31T05:12:28;13.40;99.90
43949;DHT22;29429;51.074;13.764;2023-10-31T05:14:54;13.40;99.90
43949;DHT22;29429;51.074;13.764;2023-10-31T05:17:22;13.40;99.90
43949;DHT22;29429;51.074;13.764;2023-10-31T05:19:49;13.40;99.90
43949;DHT22;29429;51.074;13.764;2023-10-31T05:22:16;13.40;99.90
43949;DHT22;29429;51.074;13.764;2023-10-31T05:24:43;13.40;99.90
43949;DHT22;29429;51.074;13.764;2023-10-31T05:27:10;13.30;99.90
43949;DHT22;29429;51.074;13.764;2023-10-31T05:29:39;13.30;99.90
43949;DHT22;29429;51.074;13.764;2023-10-31T05:32:06;13.40;99.90
43949;DHT22;29429;51.074;13.764;2023-10-31T05:34:33;13.20;99.90
43949;DHT22;29429;51.074;13.764;2023-10-31T05:37:00;13.40;99.90
43949;DHT22;29429;51.074;13.764;2023-10-31T05:39:26;13.20;99.90
43949;DHT22;29429;51.074;13.764;2023-10-31T05:41:53;13.30;99.90
43949;DHT22;29429;51.074;13.764;2023-10-31T05:44:20;13.30;99.90
43949;DHT22;29429;51.074;13.764;2023-10-31T05:46:47;13.30;99.90
43949;DHT22;29429;51.074;13.764;2023-10-31T05:49:14;13.30;99.90
43949;DHT22;29429;51.074;13.764;2023-10-31T05:51:42;13.30;99.90
43949;DHT22;29429;51.074;13.764;2023-10-31T05:54:10;13.30;99.90
43949;DHT22;29429;51.074;13.764;2023-10-31T05:56:37;13.30;99.90
43949;DHT22;29429;51.074;13.764;2023-10-31T05:59:04;13.10;99.90
43949;DHT22;29429;51.074;13.764;2023-10-31T06:01:31;13.20;99.90
43949;DHT22;29429;51.074;13.764;2023-10-31T06:03:58;13.20;99.90
43949;DHT22;29429;51.074;13.764;2023-10-31T06:06:24;13.20;99.90
43949;DHT22;29429;51.074;13.764;2023-10-31T06:08:51;13.30;99.90
43949;DHT22;29429;51.074;13.764;2023-10-31T06:11:18;13.20;99.90
43949;DHT22;29429;51.074;13.764;2023-10-31T06:13:45;13.30;99.90
43949;DHT22;29429;51.074;13.764;2023-10-31T06:16:14;13.30;99.90
43949;DHT22;29429;51.074;13.764;2023-10-31T06:18:41;13.20;99.90
43949;DHT22;29429;51.074;13.764;2023-10-31T06:21:08;13.30;99.90
43949;DHT22;29429;51.074;13.764;2023-10-31T06:23:37;13.30;99.90
43949;DHT22;29429;51.074;13.764;2023-10-31T06:26:04;13.30;99.90
43949;DHT22;29429;51.074;13.764;2023-10-31T06:28:32;13.30;99.90
43949;DHT22;29429;51.074;13.764;2023-10-31T06:31:06;13.30;99.90
43949;DHT22;29429;51.074;13.764;2023-10-31T06:33:33;13.30;99.90
43949;DHT22;29429;51.074;13.764;2023-10-31T06:36:00;13.40;99.90
43949;DHT22;29429;51.074;13.764;2023-10-31T06:38:28;13.30;99.90
43949;DHT22;29429;51.074;13.764;2023-10-31T06:40:55;13.20;99.90
43949;DHT22;29429;51.074;13.764;2023-10-31T06:43:23;13.20;99.90
43949;DHT22;29429;51.074;13.764;2023-10-31T06:45:51;13.10;99.90
43949;DHT22;29429;51.074;13.764;2023-10-31T06:48:18;13.20;99.90
43949;DHT22;29429;51.074;13.764;2023-10-31T06:50:44;13.20;99.90
43949;DHT22;29429;51.074;13.764;2023-10-31T06:53:11;13.20;99.90
43949;DHT22;29429;51.074;13.764;2023-10-31T06:55:39;13.20;99.90
43949;DHT22;29429;51.074;13.764;2023-10-31T06:58:05;13.20;99.90
43949;DHT22;29429;51.074;13.764;2023-10-31T07:00:32;13.20;99.90
43949;DHT22;29429;51.074;13.764;2023-10-31T07:02:59;13.20;99.90
43949;DHT22;29429;51.074;13.764;2023-10-31T07:05:31;13.20;99.90
43949;DHT22;29429;51.074;13.764;2023-10-31T07:07:59;13.30;99.90
43949;DHT22;29429;51.074;13.764;2023-10-31T07:10:26;13.40;99.90
43949;DHT22;29429;51.074;13.764;2023-10-31T07:12:53;13.30;99.90
43949;DHT22;29429;51.074;13.764;2023-10-31T07:15:20;13.30;99.90
43949;DHT22;29429;51.074;13.764;2023-10-31T07:17:48;13.30;99.90
43949;DHT22;29429;51.074;13.764;2023-10-31T07:20:14;13.30;99.90
43949;DHT22;29429;51.074;13.764;2023-10-31T07:22:41;13.40;99.90
43949;DHT22;29429;51.074;13.764;2023-10-31T07:25:08;13.20;99.90
43949;DHT22;29429;51.074;13.764;2023-10-31T07:27:36;13.40;99.90
43949;DHT22;29429;51.074;13.764;2023-10-31T07:30:04;13.30;99.90
43949;DHT22;29429;51.074;13.764;2023-10-31T07:32:32;13.30;99.90
43949;DHT22;29429;51.074;13.764;2023-10-31T07:34:59;13.40;99.90
43949;DHT22;29429;51.074;13.764;2023-10-31T07:37:26;13.40;99.90
43949;DHT22;29429;51.074;13.764;2023-10-31T07:39:53;13.60;99.90
43949;DHT22;29429;51.074;13.764;2023-10-31T07:42:20;13.50;99.90
43949;DHT22;29429;51.074;13.764;2023-10-31T07:44:47;13.50;99.90
43949;DHT22;29429;51.074;13.764;2023-10-31T07:47:14;13.60;99.90
43949;DHT22;29429;51.074;13.764;2023-10-31T07:49:41;13.70;99.90
43949;DHT22;29429;51.074;13.764;2023-10-31T07:52:08;13.60;99.90
43949;DHT22;29429;51.074;13.764;2023-10-31T07:54:39;13.60;99.90
43949;DHT22;29429;51.074;13.764;2023-10-31T07:57:07;13.70;99.90
43949;DHT22;29429;51.074;13.764;2023-10-31T07:59:34;13.80;99.90
43949;DHT22;29429;51.074;13.764;2023-10-31T08:02:01;13.90;99.90
43949;DHT22;29429;51.074;13.764;2023-10-31T08:04:29;13.80;99.90
43949;DHT22;29429;51.074;13.764;2023-10-31T08:06:56;14.00;99.90
43949;DHT22;29429;51.074;13.764;2023-10-31T08:09:23;14.00;99.90
43949;DHT22;29429;51.074;13.764;2023-10-31T08:11:50;14.20;99.90
43949;DHT22;29429;51.074;13.764;2023-10-31T08:14:17;14.00;99.90
43949;DHT22;29429;51.074;13.764;2023-10-31T08:16:44;14.00;99.90
43949;DHT22;29429;51.074;13.764;2023-10-31T08:19:11;14.00;99.90
43949;DHT22;29429;51.074;13.764;2023-10-31T08:21:39;13.90;99.90
43949;DHT22;29429;51.074;13.764;2023-10-31T08:24:06;13.80;99.90
43949;DHT22;29429;51.074;13.764;2023-10-31T08:26:33;13.80;99.90
43949;DHT22;29429;51.074;13.764;2023-10-31T08:29:01;13.80;99.90
43949;DHT22;29429;51.074;13.764;2023-10-31T08:31:28;13.80;99.90
43949;DHT22;29429;51.074;13.764;2023-10-31T08:33:55;13.80;99.90
43949;DHT22;29429;51.074;13.764;2023-10-31T08:36:21;13.90;99.90
43949;DHT22;29429;51.074;13.764;2023-10-31T08:38:48;13.80;99.90
43949;DHT22;29429;51.074;13.764;2023-10-31T08:41:15;13.90;99.90
43949;DHT22;29429;51.074;13.764;2023-10-31T08:43:46;13.90;99.90
43949;DHT22;29429;51.074;13.764;2023-10-31T08:46:14;13.90;99.90
43949;DHT22;29429;51.074;13.764;2023-10-31T08:48:41;13.90;99.90
43949;DHT22;29429;51.074;13.764;2023-10-31T08:51:07;13.80;99.90
43949;DHT22;29429;51.074;13.764;2023-10-31T08:53:34;14.00;99.90
43949;DHT22;29429;51.074;13.764;2023-10-31T08:56:01;14.00;99.90
43949;DHT22;29429;51.074;13.764;2023-10-31T08:58:28;14.00;99.90
43949;DHT22;29429;51.074;13.764;2023-10-31T09:00:56;14.10;99.90
43949;DHT22;29429;51.074;13.764;2023-10-31T09:03:23;14.00;99.90
43949;DHT22;29429;51.074;13.764;2023-10-31T09:05:50;13.90;99.90
43949;DHT22;29429;51.074;13.764;2023-10-31T09:08:17;14.00;99.90
43949;DHT22;29429;51.074;13.764;2023-10-31T09:10:45;14.00;99.90
43949;DHT22;29429;51.074;13.764;2023-10-31T09:13:14;14.00;99.90
43949;DHT22;29429;51.074;13.764;2023-10-31T09:15:41;14.00;99.90
43949;DHT22;29429;51.074;13.764;2023-10-31T09:18:08;14.10;99.90
43949;DHT22;29429;51.074;13.764;2023-10-31T09:20:35;14.20;99.90
43949;DHT22;29429;51.074;13.764;2023-10-31T09:23:02;14.20;99.90
43949;DHT22;29429;51.074;13.764;2023-10-31T09:25:29;14.20;99.90
43949;DHT22;29429;51.074;13.764;2023-10-31T09:27:57;14.20;99.90
43949;DHT22;29429;51.074;13.764;2023-10-31T09:30:26;14.20;99.90
43949;DHT22;29429;51.074;13.764;2023-10-31T09:32:53;14.20;99.90
43949;DHT22;29429;51.074;13.764;2023-10-31T09:35:20;14.20;99.90
43949;DHT22;29429;51.074;13.764;2023-10-31T09:37:47;14.20;99.90
43949;DHT22;29429;51.074;13.764;2023-10-31T09:40:16;14.10;99.90
43949;DHT22;29429;51.074;13.764;2023-10-31T09:42:44;14.10;99.90
43949;DHT22;29429;51.074;13.764;2023-10-31T09:45:13;14.00;99.90
43949;DHT22;29429;51.074;13.764;2023-10-31T09:47:40;14.00;99.90
43949;DHT22;29429;51.074;13.764;2023-10-31T09:50:10;14.10;99.90
43949;DHT22;29429;51.074;13.764;2023-10-31T09:52:38;14.00;99.90
43949;DHT22;29429;51.074;13.764;2023-10-31T09:55:06;13.90;99.90
43949;DHT22;29429;51.074;13.764;2023-10-31T09:57:35;14.00;99.90
43949;DHT22;29429;51.074;13.764;2023-10-31T10:00:02;14.00;99.90
43949;DHT22;29429;51.074;13.764;2023-10-31T10:02:35;13.90;99.90
43949;DHT22;29429;51.074;13.764;2023-10-31T10:05:03;13.90;99.90
43949;DHT22;29429;51.074;13.764;2023-10-31T10:07:33;13.80;99.90
43949;DHT22;29429;51.074;13.764;2023-10-31T10:10:02;13.80;99.90
43949;DHT22;29429;51.074;13.764;2023-10-31T10:12:29;13.70;99.90
43949;DHT22;29429;51.074;13.764;2023-10-31T10:14:58;13.80;99.90
43949;DHT22;29429;51.074;13.764;2023-10-31T10:17:25;13.80;99.90
43949;DHT22;29429;51.074;13.764;2023-10-31T10:20:09;13.90;99.90
43949;DHT22;29429;51.074;13.764;2023-10-31T10:22:41;14.00;99.90
43949;DHT22;29429;51.074;13.764;2023-10-31T10:25:11;14.00;99.90
43949;DHT22;29429;51.074;13.764;2023-10-31T10:27:42;14.20;99.90
43949;DHT22;29429;51.074;13.764;2023-10-31T10:30:11;14.30;99.90
43949;DHT22;29429;51.074;13.764;2023-10-31T10:32:39;14.50;99.90
43949;DHT22;29429;51.074;13.764;2023-10-31T10:35:07;14.60;99.90
43949;DHT22;29429;51.074;13.764;2023-10-31T10:37:37;14.70;99.90
43949;DHT22;29429;51.074;13.764;2023-10-31T10:40:07;14.70;99.90
43949;DHT22;29429;51.074;13.764;2023-10-31T10:42:45;14.80;99.90
43949;DHT22;29429;51.074;13.764;2023-10-31T10:45:16;14.90;99.90
43949;DHT22;29429;51.074;13.764;2023-10-31T10:47:47;15.00;99.90
43949;DHT22;29429;51.074;13.764;2023-10-31T10:50:18;15.00;99.90
43949;DHT22;29429;51.074;13.764;2023-10-31T10:53:16;15.00;99.90
43949;DHT22;29429;51.074;13.764;2023-10-31T10:55:51;15.10;99.90
43949;DHT22;29429;51.074;13.764;2023-10-31T10:58:37;15.10;99.90
43949;DHT22;29429;51.074;13.764;2023-10-31T11:01:11;15.10;99.90
43949;DHT22;29429;51.074;13.764;2023-10-31T11:03:39;15.10;99.90
43949;DHT22;29429;51.074;13.764;2023-10-31T11:06:07;15.10;99.90
43949;DHT22;29429;51.074;13.764;2023-10-31T11:08:34;15.10;99.90
43949;DHT22;29429;51.074;13.764;2023-10-31T11:11:05;15.00;99.90
43949;DHT22;29429;51.074;13.764;2023-10-31T11:13:32;14.90;99.90
43949;DHT22;29429;51.074;13.764;2023-10-31T11:16:11;14.80;99.90
43949;DHT22;29429;51.074;13.764;2023-10-31T11:18:42;14.70;99.90
43949;DHT22;29429;51.074;13.764;2023-10-31T11:21:10;14.70;99.90
43949;DHT22;29429;51.074;13.764;2023-10-31T11:23:37;14.60;99.90
43949;DHT22;29429;51.074;13.764;2023-10-31T11:26:09;14.80;99.90
43949;DHT22;29429;51.074;13.764;2023-10-31T11:28:36;14.80;99.90
43949;DHT22;29429;51.074;13.764;2023-10-31T11:31:03;14.90;99.90
43949;DHT22;29429;51.074;13.764;2023-10-31T11:33:31;14.90;99.90
43949;DHT22;29429;51.074;13.764;2023-10-31T11:36:01;14.90;99.90
43949;DHT22;29429;51.074;13.764;2023-10-31T11:38:37;14.80;99.90
43949;DHT22;29429;51.074;13.764;2023-10-31T11:41:05;14.70;99.90
43949;DHT22;29429;51.074;13.764;2023-10-31T11:46:05;14.80;99.90
43949;DHT22;29429;51.074;13.764;2023-10-31T11:48:46;14.70;99.90
43949;DHT22;29429;51.074;13.764;2023-10-31T11:51:14;14.80;99.90
43949;DHT22;29429;51.074;13.764;2023-10-31T11:53:41;14.90;99.90
43949;DHT22;29429;51.074;13.764;2023-10-31T11:56:21;15.00;99.90
43949;DHT22;29429;51.074;13.764;2023-10-31T11:59:00;14.90;99.90
43949;DHT22;29429;51.074;13.764;2023-10-31T12:01:29;14.90;99.90
43949;DHT22;29429;51.074;13.764;2023-10-31T12:03:56;14.80;99.90
43949;DHT22;29429;51.074;13.764;2023-10-31T12:06:23;14.80;99.90
43949;DHT22;29429;51.074;13.764;2023-10-31T12:08:50;14.70;99.90
43949;DHT22;29429;51.074;13.764;2023-10-31T12:11:22;14.60;99.90
43949;DHT22;29429;51.074;13.764;2023-10-31T12:16:27;14.60;99.90
43949;DHT22;29429;51.074;13.764;2023-10-31T12:18:59;14.60;99.90
43949;DHT22;29429;51.074;13.764;2023-10-31T12:21:38;14.60;99.90
43949;DHT22;29429;51.074;13.764;2023-10-31T12:24:18;14.60;99.90
43949;DHT22;29429;51.074;13.764;2023-10-31T12:26:46;14.60;99.90
43949;DHT22;29429;51.074;13.764;2023-10-31T12:29:17;14.50;99.90
43949;DHT22;29429;51.074;13.764;2023-10-31T12:31:53;14.50;99.90
43949;DHT22;29429;51.074;13.764;2023-10-31T12:34:22;14.50;99.90
43949;DHT22;29429;51.074;13.764;2023-10-31T12:36:52;14.50;99.90
43949;DHT22;29429;51.074;13.764;2023-10-31T12:39:25;14.50;99.90
43949;DHT22;29429;51.074;13.764;2023-10-31T12:41:54;14.60;99.90
43949;DHT22;29429;51.074;13.764;2023-10-31T12:44:25;14.60;99.90
43949;DHT22;29429;51.074;13.764;2023-10-31T12:46:55;14.50;99.90
43949;DHT22;29429;51.074;13.764;2023-10-31T12:49:22;14.60;99.90
43949;DHT22;29429;51.074;13.764;2023-10-31T12:51:56;14.50;99.90
43949;DHT22;29429;51.074;13.764;2023-10-31T12:54:34;14.50;99.90
43949;DHT22;29429;51.074;13.764;2023-10-31T12:57:09;14.50;99.90
43949;DHT22;29429;51.074;13.764;2023-10-31T12:59:37;14.50;99.90
43949;DHT22;29429;51.074;13.764;2023-10-31T13:02:06;14.50;99.90
43949;DHT22;29429;51.074;13.764;2023-10-31T13:04:34;14.40;99.90
43949;DHT22;29429;51.074;13.764;2023-10-31T13:07:07;14.40;99.90
43949;DHT22;29429;51.074;13.764;2023-10-31T13:09:36;14.30;99.90
43949;DHT22;29429;51.074;13.764;2023-10-31T13:12:09;14.30;99.90
43949;DHT22;29429;51.074;13.764;2023-10-31T13:14:40;14.20;99.90
43949;DHT22;29429;51.074;13.764;2023-10-31T13:17:07;14.20;99.90
43949;DHT22;29429;51.074;13.764;2023-10-31T13:19:34;14.10;99.90
43949;DHT22;29429;51.074;13.764;2023-10-31T13:22:01;14.00;99.90
43949;DHT22;29429;51.074;13.764;2023-10-31T13:24:28;13.80;99.90
43949;DHT22;29429;51.074;13.764;2023-10-31T13:26:55;13.90;99.90
43949;DHT22;29429;51.074;13.764;2023-10-31T13:29:22;13.90;99.90
43949;DHT22;29429;51.074;13.764;2023-10-31T13:31:52;13.90;99.90
43949;DHT22;29429;51.074;13.764;2023-10-31T13:34:19;13.90;99.90
43949;DHT22;29429;51.074;13.764;2023-10-31T13:36:46;13.90;99.90
43949;DHT22;29429;51.074;13.764;2023-10-31T13:39:16;13.90;99.90
43949;DHT22;29429;51.074;13.764;2023-10-31T13:41:43;14.00;99.90
43949;DHT22;29429;51.074;13.764;2023-10-31T13:44:10;13.90;99.90
43949;DHT22;29429;51.074;13.764;2023-10-31T13:46:37;13.90;99.90
43949;DHT22;29429;51.074;13.764;2023-10-31T13:49:04;14.00;99.90
43949;DHT22;29429;51.074;13.764;2023-10-31T13:51:33;14.00;99.90
43949;DHT22;29429;51.074;13.764;2023-10-31T13:54:00;14.00;99.90
43949;DHT22;29429;51.074;13.764;2023-10-31T13:56:27;14.00;99.90
43949;DHT22;29429;51.074;13.764;2023-10-31T13:58:54;14.00;99.90
43949;DHT22;29429;51.074;13.764;2023-10-31T14:01:21;14.00;99.90
43949;DHT22;29429;51.074;13.764;2023-10-31T14:03:52;14.00;99.90
43949;DHT22;29429;51.074;13.764;2023-10-31T14:06:19;14.00;99.90
43949;DHT22;29429;51.074;13.764;2023-10-31T14:08:46;14.10;99.90
43949;DHT22;29429;51.074;13.764;2023-10-31T14:11:13;14.00;99.90
43949;DHT22;29429;51.074;13.764;2023-10-31T14:13:40;14.00;99.90
43949;DHT22;29429;51.074;13.764;2023-10-31T14:16:10;14.00;99.90
43949;DHT22;29429;51.074;13.764;2023-10-31T14:18:38;13.90;99.90
43949;DHT22;29429;51.074;13.764;2023-10-31T14:21:05;13.90;99.90
43949;DHT22;29429;51.074;13.764;2023-10-31T14:23:32;13.90;99.90
43949;DHT22;29429;51.074;13.764;2023-10-31T14:25:59;13.80;99.90
43949;DHT22;29429;51.074;13.764;2023-10-31T14:28:26;13.80;99.90
43949;DHT22;29429;51.074;13.764;2023-10-31T14:30:53;13.70;99.90
43949;DHT22;29429;51.074;13.764;2023-10-31T14:33:20;13.60;99.90
43949;DHT22;29429;51.074;13.764;2023-10-31T14:35:48;13.60;99.90
43949;DHT22;29429;51.074;13.764;2023-10-31T14:38:15;13.50;99.90
43949;DHT22;29429;51.074;13.764;2023-10-31T14:40:42;13.40;99.90
43949;DHT22;29429;51.074;13.764;2023-10-31T14:43:09;13.40;99.90
43949;DHT22;29429;51.074;13.764;2023-10-31T14:45:36;13.40;99.90
43949;DHT22;29429;51.074;13.764;2023-10-31T14:48:03;13.50;99.90
43949;DHT22;29429;51.074;13.764;2023-10-31T14:50:30;13.30;99.90
43949;DHT22;29429;51.074;13.764;2023-10-31T14:52:57;13.30;99.90
43949;DHT22;29429;51.074;13.764;2023-10-31T14:55:25;13.30;99.90
43949;DHT22;29429;51.074;13.764;2023-10-31T14:57:52;13.30;99.90
43949;DHT22;29429;51.074;13.764;2023-10-31T15:00:18;13.20;99.90
43949;DHT22;29429;51.074;13.764;2023-10-31T15:02:45;13.20;99.90
43949;DHT22;29429;51.074;13.764;2023-10-31T15:05:13;13.20;99.90
43949;DHT22;29429;51.074;13.764;2023-10-31T15:07:40;13.20;99.90
43949;DHT22;29429;51.074;13.764;2023-10-31T15:10:07;13.20;99.90
43949;DHT22;29429;51.074;13.764;2023-10-31T15:12:35;13.20;99.90
43949;DHT22;29429;51.074;13.764;2023-10-31T15:15:02;13.20;99.90
43949;DHT22;29429;51.074;13.764;2023-10-31T15:17:29;13.20;99.90
43949;DHT22;29429;51.074;13.764;2023-10-31T15:19:56;13.20;99.90
43949;DHT22;29429;51.074;13.764;2023-10-31T15:22:24;13.20;99.90
43949;DHT22;29429;51.074;13.764;2023-10-31T15:24:51;13.20;99.90